sensor_id;sensor_type;location;lat;lon;timestamp;P1;durP1;ratioP1;P2;durP2;ratioP2
12181;SDS011;6154;51.550;12.138;2023-03-01T00:01:18;5.80;;;3.60;;
12181;SDS011;6154;51.550;12.138;2023-03-01T00:03:48;6.87;;;4.07;;
12181;SDS011;6154;51.550;12.138;2023-03-01T00:06:16;5.90;;;3.63;;
12181;SDS011;6154;51.550;12.138;2023-03-01T00:08:45;7.50;;;4.40;;
12181;SDS011;6154;51.550;12.138;2023-03-01T00:11:16;6.87;;;3.97;;
12181;SDS011;6154;51.550;12.138;2023-03-01T00:13:46;4.23;;;2.97;;
12181;SDS011;6154;51.550;12.138;2023-03-01T00:16:20;7.53;;;4.03;;
12181;SDS011;6154;51.550;12.138;2023-03-01T00:18:49;6.23;;;4.27;;
12181;SDS011;6154;51.550;12.138;2023-03-01T00:21:21;8.07;;;4.20;;
12181;SDS011;6154;51.550;12.138;2023-03-01T00:23:49;7.03;;;4.00;;
12181;SDS011;6154;51.550;12.138;2023-03-01T00:26:20;6.63;;;4.17;;
12181;SDS011;6154;51.550;12.138;2023-03-01T00:28:50;9.77;;;4.30;;
12181;SDS011;6154;51.550;12.138;2023-03-01T00:31:19;4.67;;;3.23;;
12181;SDS011;6154;51.550;12.138;2023-03-01T00:33:51;6.12;;;3.78;;
12181;SDS011;6154;51.550;12.138;2023-03-01T00:36:20;9.50;;;4.37;;
12181;SDS011;6154;51.550;12.138;2023-03-01T00:38:48;9.88;;;4.15;;
12181;SDS011;6154;51.550;12.138;2023-03-01T00:41:17;8.20;;;4.28;;
12181;SDS011;6154;51.550;12.138;2023-03-01T00:43:49;10.77;;;4.47;;
12181;SDS011;6154;51.550;12.138;2023-03-01T00:46:19;5.72;;;3.25;;
12181;SDS011;6154;51.550;12.138;2023-03-01T00:48:48;10.37;;;4.93;;
12181;SDS011;6154;51.550;12.138;2023-03-01T00:51:18;7.47;;;3.73;;
12181;SDS011;6154;51.550;12.138;2023-03-01T00:53:49;11.25;;;5.12;;
12181;SDS011;6154;51.550;12.138;2023-03-01T00:56:20;5.80;;;4.07;;
12181;SDS011;6154;51.550;12.138;2023-03-01T00:58:48;9.65;;;4.45;;
12181;SDS011;6154;51.550;12.138;2023-03-01T01:01:18;12.77;;;4.87;;
12181;SDS011;6154;51.550;12.138;2023-03-01T01:03:50;11.48;;;3.95;;
12181;SDS011;6154;51.550;12.138;2023-03-01T01:06:20;8.07;;;4.50;;
12181;SDS011;6154;51.550;12.138;2023-03-01T01:08:50;6.37;;;4.53;;
12181;SDS011;6154;51.550;12.138;2023-03-01T01:11:20;7.53;;;4.60;;
12181;SDS011;6154;51.550;12.138;2023-03-01T01:13:49;8.07;;;4.70;;
12181;SDS011;6154;51.550;12.138;2023-03-01T01:16:18;8.40;;;4.00;;
12181;SDS011;6154;51.550;12.138;2023-03-01T01:18:48;8.05;;;4.57;;
12181;SDS011;6154;51.550;12.138;2023-03-01T01:21:17;8.25;;;4.87;;
12181;SDS011;6154;51.550;12.138;2023-03-01T01:23:48;5.28;;;3.53;;
12181;SDS011;6154;51.550;12.138;2023-03-01T01:26:18;7.73;;;3.73;;
12181;SDS011;6154;51.550;12.138;2023-03-01T01:28:49;8.43;;;3.30;;
12181;SDS011;6154;51.550;12.138;2023-03-01T01:31:18;9.73;;;5.27;;
12181;SDS011;6154;51.550;12.138;2023-03-01T01:33:50;11.80;;;4.27;;
12181;SDS011;6154;51.550;12.138;2023-03-01T01:36:19;7.10;;;4.20;;
12181;SDS011;6154;51.550;12.138;2023-03-01T01:38:48;6.62;;;3.65;;
12181;SDS011;6154;51.550;12.138;2023-03-01T01:41:16;5.03;;;3.80;;
12181;SDS011;6154;51.550;12.138;2023-03-01T01:43:45;5.70;;;3.53;;
12181;SDS011;6154;51.550;12.138;2023-03-01T01:46:19;5.80;;;4.00;;
12181;SDS011;6154;51.550;12.138;2023-03-01T01:48:52;7.93;;;4.20;;
12181;SDS011;6154;51.550;12.138;2023-03-01T01:51:25;8.03;;;4.37;;
12181;SDS011;6154;51.550;12.138;2023-03-01T01:54:06;5.32;;;3.67;;
12181;SDS011;6154;51.550;12.138;2023-03-01T01:56:40;7.43;;;4.80;;
12181;SDS011;6154;51.550;12.138;2023-03-01T01:59:12;4.63;;;3.87;;
12181;SDS011;6154;51.550;12.138;2023-03-01T02:01:43;10.73;;;3.43;;
12181;SDS011;6154;51.550;12.138;2023-03-01T02:04:12;5.72;;;4.45;;
12181;SDS011;6154;51.550;12.138;2023-03-01T02:06:41;10.50;;;4.67;;
12181;SDS011;6154;51.550;12.138;2023-03-01T02:09:17;7.67;;;3.97;;
12181;SDS011;6154;51.550;12.138;2023-03-01T02:11:48;4.28;;;3.33;;
12181;SDS011;6154;51.550;12.138;2023-03-01T02:14:18;7.70;;;3.80;;
12181;SDS011;6154;51.550;12.138;2023-03-01T02:16:47;5.05;;;3.22;;
12181;SDS011;6154;51.550;12.138;2023-03-01T02:19:18;3.37;;;2.73;;
12181;SDS011;6154;51.550;12.138;2023-03-01T02:22:00;6.67;;;3.87;;
12181;SDS011;6154;51.550;12.138;2023-03-01T02:24:37;8.23;;;4.63;;
12181;SDS011;6154;51.550;12.138;2023-03-01T02:27:17;7.83;;;3.97;;
12181;SDS011;6154;51.550;12.138;2023-03-01T02:29:52;7.10;;;3.83;;
12181;SDS011;6154;51.550;12.138;2023-03-01T02:32:23;5.87;;;4.17;;
12181;SDS011;6154;51.550;12.138;2023-03-01T02:34:52;8.60;;;4.13;;
12181;SDS011;6154;51.550;12.138;2023-03-01T02:37:21;7.13;;;4.17;;
12181;SDS011;6154;51.550;12.138;2023-03-01T02:39:53;8.17;;;3.93;;
12181;SDS011;6154;51.550;12.138;2023-03-01T02:42:26;6.77;;;3.87;;
12181;SDS011;6154;51.550;12.138;2023-03-01T02:44:59;7.37;;;4.67;;
12181;SDS011;6154;51.550;12.138;2023-03-01T02:47:28;5.57;;;3.90;;
12181;SDS011;6154;51.550;12.138;2023-03-01T02:49:56;7.87;;;4.37;;
12181;SDS011;6154;51.550;12.138;2023-03-01T02:52:34;6.97;;;3.43;;
12181;SDS011;6154;51.550;12.138;2023-03-01T02:55:13;9.83;;;4.27;;
12181;SDS011;6154;51.550;12.138;2023-03-01T02:57:45;8.63;;;4.00;;
12181;SDS011;6154;51.550;12.138;2023-03-01T03:00:19;7.87;;;4.33;;
12181;SDS011;6154;51.550;12.138;2023-03-01T03:02:53;8.47;;;3.93;;
12181;SDS011;6154;51.550;12.138;2023-03-01T03:05:24;8.03;;;4.40;;
12181;SDS011;6154;51.550;12.138;2023-03-01T03:07:55;6.83;;;4.60;;
12181;SDS011;6154;51.550;12.138;2023-03-01T03:10:26;6.17;;;4.77;;
12181;SDS011;6154;51.550;12.138;2023-03-01T03:12:57;5.57;;;3.80;;
12181;SDS011;6154;51.550;12.138;2023-03-01T03:15:28;6.63;;;3.77;;
12181;SDS011;6154;51.550;12.138;2023-03-01T03:17:57;4.67;;;3.27;;
12181;SDS011;6154;51.550;12.138;2023-03-01T03:20:27;8.30;;;3.63;;
12181;SDS011;6154;51.550;12.138;2023-03-01T03:22:56;5.23;;;3.43;;
12181;SDS011;6154;51.550;12.138;2023-03-01T03:25:26;6.83;;;3.60;;
12181;SDS011;6154;51.550;12.138;2023-03-01T03:27:55;8.03;;;4.73;;
12181;SDS011;6154;51.550;12.138;2023-03-01T03:30:25;8.10;;;4.27;;
12181;SDS011;6154;51.550;12.138;2023-03-01T03:32:57;6.37;;;4.00;;
12181;SDS011;6154;51.550;12.138;2023-03-01T03:35:26;5.87;;;4.10;;
12181;SDS011;6154;51.550;12.138;2023-03-01T03:37:57;5.23;;;3.37;;
12181;SDS011;6154;51.550;12.138;2023-03-01T03:40:30;5.60;;;4.37;;
12181;SDS011;6154;51.550;12.138;2023-03-01T03:43:00;9.03;;;4.07;;
12181;SDS011;6154;51.550;12.138;2023-03-01T03:45:28;9.93;;;4.23;;
12181;SDS011;6154;51.550;12.138;2023-03-01T03:48:02;6.87;;;3.83;;
12181;SDS011;6154;51.550;12.138;2023-03-01T03:50:31;5.73;;;4.13;;
12181;SDS011;6154;51.550;12.138;2023-03-01T03:53:00;6.93;;;4.10;;
12181;SDS011;6154;51.550;12.138;2023-03-01T03:55:30;9.30;;;3.60;;
12181;SDS011;6154;51.550;12.138;2023-03-01T03:58:01;6.67;;;3.33;;
12181;SDS011;6154;51.550;12.138;2023-03-01T04:00:34;6.20;;;4.00;;
12181;SDS011;6154;51.550;12.138;2023-03-01T04:03:05;7.67;;;4.03;;
12181;SDS011;6154;51.550;12.138;2023-03-01T04:05:35;5.47;;;3.70;;
12181;SDS011;6154;51.550;12.138;2023-03-01T04:08:03;7.50;;;4.70;;
12181;SDS011;6154;51.550;12.138;2023-03-01T04:10:39;6.27;;;3.80;;
12181;SDS011;6154;51.550;12.138;2023-03-01T04:13:10;12.37;;;5.03;;
12181;SDS011;6154;51.550;12.138;2023-03-01T04:15:40;6.73;;;4.37;;
12181;SDS011;6154;51.550;12.138;2023-03-01T04:18:11;6.87;;;4.47;;
12181;SDS011;6154;51.550;12.138;2023-03-01T04:20:41;8.00;;;4.47;;
12181;SDS011;6154;51.550;12.138;2023-03-01T04:23:12;6.67;;;5.00;;
12181;SDS011;6154;51.550;12.138;2023-03-01T05:34:27;6.93;;;4.60;;
12181;SDS011;6154;51.550;12.138;2023-03-01T05:36:57;7.57;;;3.57;;
12181;SDS011;6154;51.550;12.138;2023-03-01T05:39:26;4.40;;;2.97;;
12181;SDS011;6154;51.550;12.138;2023-03-01T05:41:57;9.57;;;4.73;;
12181;SDS011;6154;51.550;12.138;2023-03-01T05:44:27;8.57;;;3.33;;
12181;SDS011;6154;51.550;12.138;2023-03-01T05:46:57;6.53;;;4.20;;
12181;SDS011;6154;51.550;12.138;2023-03-01T05:49:26;8.90;;;5.23;;
12181;SDS011;6154;51.550;12.138;2023-03-01T05:51:54;7.13;;;3.53;;
12181;SDS011;6154;51.550;12.138;2023-03-01T05:54:23;6.43;;;3.77;;
12181;SDS011;6154;51.550;12.138;2023-03-01T05:56:51;6.53;;;3.83;;
12181;SDS011;6154;51.550;12.138;2023-03-01T05:59:19;8.27;;;4.63;;
12181;SDS011;6154;51.550;12.138;2023-03-01T06:01:47;9.13;;;4.03;;
12181;SDS011;6154;51.550;12.138;2023-03-01T06:04:16;8.23;;;4.40;;
12181;SDS011;6154;51.550;12.138;2023-03-01T06:06:46;3.80;;;3.30;;
12181;SDS011;6154;51.550;12.138;2023-03-01T06:09:14;5.13;;;3.67;;
12181;SDS011;6154;51.550;12.138;2023-03-01T06:11:42;7.23;;;3.77;;
12181;SDS011;6154;51.550;12.138;2023-03-01T06:14:10;5.60;;;3.80;;
12181;SDS011;6154;51.550;12.138;2023-03-01T06:16:41;6.37;;;3.33;;
12181;SDS011;6154;51.550;12.138;2023-03-01T06:19:12;8.17;;;3.70;;
12181;SDS011;6154;51.550;12.138;2023-03-01T06:21:40;6.73;;;4.00;;
12181;SDS011;6154;51.550;12.138;2023-03-01T06:24:10;6.37;;;3.83;;
12181;SDS011;6154;51.550;12.138;2023-03-01T06:26:38;10.57;;;4.53;;
12181;SDS011;6154;51.550;12.138;2023-03-01T06:29:06;8.10;;;4.77;;
12181;SDS011;6154;51.550;12.138;2023-03-01T06:31:35;2.77;;;2.00;;
12181;SDS011;6154;51.550;12.138;2023-03-01T06:34:03;4.40;;;3.07;;
12181;SDS011;6154;51.550;12.138;2023-03-01T06:36:31;8.73;;;4.00;;
12181;SDS011;6154;51.550;12.138;2023-03-01T06:39:00;3.13;;;2.67;;
12181;SDS011;6154;51.550;12.138;2023-03-01T06:41:29;4.53;;;2.80;;
12181;SDS011;6154;51.550;12.138;2023-03-01T06:43:57;7.87;;;3.87;;
12181;SDS011;6154;51.550;12.138;2023-03-01T06:46:26;3.37;;;3.00;;
12181;SDS011;6154;51.550;12.138;2023-03-01T06:48:54;9.93;;;3.33;;
12181;SDS011;6154;51.550;12.138;2023-03-01T06:51:22;4.73;;;2.67;;
12181;SDS011;6154;51.550;12.138;2023-03-01T06:53:50;5.77;;;2.73;;
12181;SDS011;6154;51.550;12.138;2023-03-01T06:56:18;5.63;;;4.00;;
12181;SDS011;6154;51.550;12.138;2023-03-01T06:58:48;5.97;;;4.37;;
12181;SDS011;6154;51.550;12.138;2023-03-01T07:01:16;11.80;;;4.70;;
12181;SDS011;6154;51.550;12.138;2023-03-01T07:03:44;11.63;;;4.77;;
12181;SDS011;6154;51.550;12.138;2023-03-01T07:06:12;7.00;;;3.67;;
12181;SDS011;6154;51.550;12.138;2023-03-01T07:08:41;5.67;;;4.03;;
12181;SDS011;6154;51.550;12.138;2023-03-01T07:11:09;7.70;;;4.80;;
12181;SDS011;6154;51.550;12.138;2023-03-01T07:13:37;7.12;;;3.90;;
12181;SDS011;6154;51.550;12.138;2023-03-01T07:16:07;8.07;;;3.63;;
12181;SDS011;6154;51.550;12.138;2023-03-01T07:18:36;9.68;;;4.65;;
12181;SDS011;6154;51.550;12.138;2023-03-01T07:21:04;5.67;;;3.53;;
12181;SDS011;6154;51.550;12.138;2023-03-01T07:23:33;5.32;;;3.12;;
12181;SDS011;6154;51.550;12.138;2023-03-01T07:26:01;7.55;;;4.40;;
12181;SDS011;6154;51.550;12.138;2023-03-01T07:28:30;8.52;;;4.53;;
12181;SDS011;6154;51.550;12.138;2023-03-01T07:31:02;12.68;;;5.25;;
12181;SDS011;6154;51.550;12.138;2023-03-01T07:33:32;9.27;;;5.00;;
12181;SDS011;6154;51.550;12.138;2023-03-01T07:36:01;9.02;;;5.30;;
12181;SDS011;6154;51.550;12.138;2023-03-01T07:38:31;8.70;;;4.68;;
12181;SDS011;6154;51.550;12.138;2023-03-01T07:41:00;9.55;;;4.68;;
12181;SDS011;6154;51.550;12.138;2023-03-01T07:43:28;8.85;;;4.37;;
12181;SDS011;6154;51.550;12.138;2023-03-01T07:45:58;8.90;;;5.07;;
12181;SDS011;6154;51.550;12.138;2023-03-01T07:48:26;19.05;;;5.85;;
12181;SDS011;6154;51.550;12.138;2023-03-01T07:50:58;8.55;;;5.30;;
12181;SDS011;6154;51.550;12.138;2023-03-01T07:53:27;9.32;;;4.47;;
12181;SDS011;6154;51.550;12.138;2023-03-01T07:56:01;7.37;;;4.82;;
12181;SDS011;6154;51.550;12.138;2023-03-01T07:58:30;12.32;;;5.35;;
12181;SDS011;6154;51.550;12.138;2023-03-01T08:01:00;7.95;;;5.43;;
12181;SDS011;6154;51.550;12.138;2023-03-01T08:03:29;12.02;;;5.75;;
12181;SDS011;6154;51.550;12.138;2023-03-01T08:06:00;9.57;;;4.93;;
12181;SDS011;6154;51.550;12.138;2023-03-01T08:08:29;11.45;;;5.43;;
12181;SDS011;6154;51.550;12.138;2023-03-01T08:10:58;7.82;;;5.00;;
12181;SDS011;6154;51.550;12.138;2023-03-01T08:13:26;7.03;;;4.78;;
12181;SDS011;6154;51.550;12.138;2023-03-01T08:15:59;8.38;;;5.03;;
12181;SDS011;6154;51.550;12.138;2023-03-01T08:18:29;9.27;;;4.85;;
12181;SDS011;6154;51.550;12.138;2023-03-01T08:21:02;7.87;;;4.78;;
12181;SDS011;6154;51.550;12.138;2023-03-01T08:23:30;9.65;;;5.18;;
12181;SDS011;6154;51.550;12.138;2023-03-01T08:26:03;8.77;;;4.65;;
12181;SDS011;6154;51.550;12.138;2023-03-01T08:28:33;10.00;;;5.03;;
12181;SDS011;6154;51.550;12.138;2023-03-01T08:31:02;12.50;;;5.62;;
12181;SDS011;6154;51.550;12.138;2023-03-01T08:33:31;7.82;;;4.80;;
12181;SDS011;6154;51.550;12.138;2023-03-01T08:36:04;8.45;;;5.20;;
12181;SDS011;6154;51.550;12.138;2023-03-01T08:38:33;10.65;;;5.55;;
12181;SDS011;6154;51.550;12.138;2023-03-01T08:41:02;11.40;;;5.72;;
12181;SDS011;6154;51.550;12.138;2023-03-01T08:43:31;8.82;;;5.05;;
12181;SDS011;6154;51.550;12.138;2023-03-01T08:45:59;12.07;;;5.32;;
12181;SDS011;6154;51.550;12.138;2023-03-01T08:48:27;7.60;;;4.60;;
12181;SDS011;6154;51.550;12.138;2023-03-01T08:50:56;6.32;;;4.47;;
12181;SDS011;6154;51.550;12.138;2023-03-01T08:53:26;11.30;;;5.80;;
12181;SDS011;6154;51.550;12.138;2023-03-01T08:55:54;7.53;;;4.85;;
12181;SDS011;6154;51.550;12.138;2023-03-01T08:58:22;9.65;;;4.93;;
12181;SDS011;6154;51.550;12.138;2023-03-01T09:00:50;9.73;;;5.68;;
12181;SDS011;6154;51.550;12.138;2023-03-01T09:03:19;7.82;;;5.25;;
12181;SDS011;6154;51.550;12.138;2023-03-01T09:05:47;10.70;;;5.07;;
12181;SDS011;6154;51.550;12.138;2023-03-01T09:08:17;8.50;;;5.03;;
12181;SDS011;6154;51.550;12.138;2023-03-01T09:10:47;8.68;;;5.22;;
12181;SDS011;6154;51.550;12.138;2023-03-01T09:13:15;11.75;;;5.72;;
12181;SDS011;6154;51.550;12.138;2023-03-01T09:15:43;7.72;;;5.15;;
12181;SDS011;6154;51.550;12.138;2023-03-01T09:18:11;10.65;;;6.10;;
12181;SDS011;6154;51.550;12.138;2023-03-01T09:20:39;9.00;;;5.22;;
12181;SDS011;6154;51.550;12.138;2023-03-01T09:23:08;8.73;;;5.80;;
12181;SDS011;6154;51.550;12.138;2023-03-01T09:25:38;11.20;;;5.82;;
12181;SDS011;6154;51.550;12.138;2023-03-01T09:28:08;10.98;;;6.03;;
12181;SDS011;6154;51.550;12.138;2023-03-01T09:30:57;9.73;;;5.93;;
12181;SDS011;6154;51.550;12.138;2023-03-01T09:33:26;7.87;;;5.03;;
12181;SDS011;6154;51.550;12.138;2023-03-01T09:35:58;10.45;;;5.90;;
12181;SDS011;6154;51.550;12.138;2023-03-01T09:38:27;11.10;;;5.95;;
12181;SDS011;6154;51.550;12.138;2023-03-01T09:40:56;9.32;;;5.47;;
12181;SDS011;6154;51.550;12.138;2023-03-01T09:43:29;9.95;;;6.00;;
12181;SDS011;6154;51.550;12.138;2023-03-01T09:46:03;8.35;;;5.97;;
12181;SDS011;6154;51.550;12.138;2023-03-01T09:48:36;10.27;;;5.40;;
12181;SDS011;6154;51.550;12.138;2023-03-01T09:51:12;8.52;;;5.80;;
12181;SDS011;6154;51.550;12.138;2023-03-01T09:53:45;12.07;;;5.47;;
12181;SDS011;6154;51.550;12.138;2023-03-01T09:56:16;10.75;;;5.32;;
12181;SDS011;6154;51.550;12.138;2023-03-01T09:58:50;8.00;;;5.22;;
12181;SDS011;6154;51.550;12.138;2023-03-01T10:01:28;8.07;;;5.30;;
12181;SDS011;6154;51.550;12.138;2023-03-01T10:04:10;11.55;;;5.45;;
12181;SDS011;6154;51.550;12.138;2023-03-01T10:06:57;10.00;;;4.97;;
12181;SDS011;6154;51.550;12.138;2023-03-01T10:09:33;7.40;;;5.32;;
12181;SDS011;6154;51.550;12.138;2023-03-01T10:12:02;9.30;;;5.20;;
12181;SDS011;6154;51.550;12.138;2023-03-01T10:14:39;8.18;;;4.70;;
12181;SDS011;6154;51.550;12.138;2023-03-01T10:17:17;9.98;;;5.47;;
12181;SDS011;6154;51.550;12.138;2023-03-01T10:19:52;7.43;;;5.00;;
12181;SDS011;6154;51.550;12.138;2023-03-01T10:22:21;10.40;;;5.45;;
12181;SDS011;6154;51.550;12.138;2023-03-01T10:24:52;9.23;;;6.10;;
12181;SDS011;6154;51.550;12.138;2023-03-01T10:27:23;8.98;;;5.90;;
12181;SDS011;6154;51.550;12.138;2023-03-01T10:30:05;9.88;;;5.22;;
12181;SDS011;6154;51.550;12.138;2023-03-01T10:32:42;9.70;;;5.25;;
12181;SDS011;6154;51.550;12.138;2023-03-01T10:35:16;6.90;;;3.95;;
12181;SDS011;6154;51.550;12.138;2023-03-01T10:37:56;8.02;;;4.80;;
12181;SDS011;6154;51.550;12.138;2023-03-01T10:40:25;7.95;;;4.72;;
12181;SDS011;6154;51.550;12.138;2023-03-01T10:42:54;9.80;;;4.87;;
12181;SDS011;6154;51.550;12.138;2023-03-01T10:45:35;7.10;;;4.00;;
12181;SDS011;6154;51.550;12.138;2023-03-01T10:48:05;9.38;;;4.53;;
12181;SDS011;6154;51.550;12.138;2023-03-01T10:50:39;7.80;;;4.40;;
12181;SDS011;6154;51.550;12.138;2023-03-01T10:53:18;6.45;;;4.28;;
12181;SDS011;6154;51.550;12.138;2023-03-01T10:55:56;9.43;;;5.22;;
12181;SDS011;6154;51.550;12.138;2023-03-01T10:58:27;6.20;;;3.92;;
12181;SDS011;6154;51.550;12.138;2023-03-01T11:00:59;7.70;;;4.50;;
12181;SDS011;6154;51.550;12.138;2023-03-01T11:03:29;5.93;;;3.83;;
12181;SDS011;6154;51.550;12.138;2023-03-01T11:06:00;8.15;;;4.55;;
12181;SDS011;6154;51.550;12.138;2023-03-01T11:08:36;9.20;;;4.55;;
12181;SDS011;6154;51.550;12.138;2023-03-01T11:11:20;8.70;;;4.37;;
12181;SDS011;6154;51.550;12.138;2023-03-01T11:13:57;6.43;;;3.92;;
12181;SDS011;6154;51.550;12.138;2023-03-01T11:16:30;6.72;;;4.25;;
12181;SDS011;6154;51.550;12.138;2023-03-01T11:19:13;6.72;;;4.30;;
12181;SDS011;6154;51.550;12.138;2023-03-01T11:21:46;7.25;;;4.35;;
12181;SDS011;6154;51.550;12.138;2023-03-01T11:24:25;7.53;;;4.43;;
12181;SDS011;6154;51.550;12.138;2023-03-01T11:26:58;7.37;;;4.35;;
12181;SDS011;6154;51.550;12.138;2023-03-01T11:29:32;6.82;;;3.97;;
12181;SDS011;6154;51.550;12.138;2023-03-01T11:32:15;6.82;;;4.72;;
12181;SDS011;6154;51.550;12.138;2023-03-01T11:34:45;7.47;;;4.12;;
12181;SDS011;6154;51.550;12.138;2023-03-01T11:37:20;7.50;;;4.25;;
12181;SDS011;6154;51.550;12.138;2023-03-01T11:39:58;7.28;;;4.10;;
12181;SDS011;6154;51.550;12.138;2023-03-01T11:42:37;7.05;;;4.28;;
12181;SDS011;6154;51.550;12.138;2023-03-01T11:45:14;5.80;;;3.80;;
12181;SDS011;6154;51.550;12.138;2023-03-01T11:47:47;6.00;;;2.92;;
12181;SDS011;6154;51.550;12.138;2023-03-01T11:50:29;6.03;;;3.30;;
12181;SDS011;6154;51.550;12.138;2023-03-01T11:53:07;8.82;;;3.80;;
12181;SDS011;6154;51.550;12.138;2023-03-01T11:55:59;6.45;;;3.03;;
12181;SDS011;6154;51.550;12.138;2023-03-01T11:58:41;5.18;;;3.30;;
12181;SDS011;6154;51.550;12.138;2023-03-01T12:01:27;6.85;;;3.72;;
12181;SDS011;6154;51.550;12.138;2023-03-01T12:04:20;6.32;;;3.58;;
12181;SDS011;6154;51.550;12.138;2023-03-01T12:07:04;7.28;;;3.65;;
12181;SDS011;6154;51.550;12.138;2023-03-01T12:09:45;6.32;;;3.70;;
12181;SDS011;6154;51.550;12.138;2023-03-01T12:12:25;6.47;;;3.08;;
12181;SDS011;6154;51.550;12.138;2023-03-01T12:15:07;5.85;;;3.55;;
12181;SDS011;6154;51.550;12.138;2023-03-01T12:17:57;6.07;;;3.22;;
12181;SDS011;6154;51.550;12.138;2023-03-01T12:20:38;5.12;;;3.28;;
12181;SDS011;6154;51.550;12.138;2023-03-01T12:23:20;6.95;;;3.28;;
12181;SDS011;6154;51.550;12.138;2023-03-01T12:26:02;5.57;;;3.55;;
12181;SDS011;6154;51.550;12.138;2023-03-01T12:28:42;5.10;;;2.85;;
12181;SDS011;6154;51.550;12.138;2023-03-01T12:31:31;4.97;;;2.85;;
12181;SDS011;6154;51.550;12.138;2023-03-01T12:34:11;6.40;;;3.33;;
12181;SDS011;6154;51.550;12.138;2023-03-01T12:36:57;4.82;;;3.17;;
12181;SDS011;6154;51.550;12.138;2023-03-01T12:39:43;6.57;;;3.45;;
12181;SDS011;6154;51.550;12.138;2023-03-01T12:42:21;6.78;;;3.95;;
12181;SDS011;6154;51.550;12.138;2023-03-01T12:45:01;5.07;;;3.50;;
12181;SDS011;6154;51.550;12.138;2023-03-01T12:47:49;5.90;;;3.08;;
12181;SDS011;6154;51.550;12.138;2023-03-01T12:50:33;4.12;;;3.12;;
12181;SDS011;6154;51.550;12.138;2023-03-01T12:53:14;6.12;;;3.75;;
12181;SDS011;6154;51.550;12.138;2023-03-01T12:55:49;6.18;;;3.42;;
12181;SDS011;6154;51.550;12.138;2023-03-01T12:58:22;5.40;;;3.78;;
12181;SDS011;6154;51.550;12.138;2023-03-01T13:01:14;4.20;;;3.20;;
12181;SDS011;6154;51.550;12.138;2023-03-01T13:06:53;7.43;;;4.12;;
12181;SDS011;6154;51.550;12.138;2023-03-01T13:09:31;4.95;;;3.60;;
12181;SDS011;6154;51.550;12.138;2023-03-01T13:15:22;5.95;;;3.15;;
12181;SDS011;6154;51.550;12.138;2023-03-01T13:17:54;3.92;;;2.65;;
12181;SDS011;6154;51.550;12.138;2023-03-01T13:20:24;3.65;;;2.65;;
12181;SDS011;6154;51.550;12.138;2023-03-01T13:23:01;4.85;;;3.03;;
12181;SDS011;6154;51.550;12.138;2023-03-01T13:28:47;3.58;;;2.20;;
12181;SDS011;6154;51.550;12.138;2023-03-01T13:34:42;4.85;;;2.30;;
12181;SDS011;6154;51.550;12.138;2023-03-01T13:37:19;5.30;;;2.87;;
12181;SDS011;6154;51.550;12.138;2023-03-01T13:39:48;3.67;;;2.40;;
12181;SDS011;6154;51.550;12.138;2023-03-01T13:42:32;3.87;;;2.55;;
12181;SDS011;6154;51.550;12.138;2023-03-01T13:45:12;3.87;;;2.62;;
12181;SDS011;6154;51.550;12.138;2023-03-01T13:47:47;5.82;;;2.70;;
12181;SDS011;6154;51.550;12.138;2023-03-01T13:50:20;4.03;;;2.37;;
12181;SDS011;6154;51.550;12.138;2023-03-01T13:52:52;2.83;;;2.33;;
12181;SDS011;6154;51.550;12.138;2023-03-01T13:55:27;2.53;;;1.83;;
12181;SDS011;6154;51.550;12.138;2023-03-01T13:58:04;4.18;;;2.10;;
12181;SDS011;6154;51.550;12.138;2023-03-01T14:00:44;3.37;;;2.00;;
12181;SDS011;6154;51.550;12.138;2023-03-01T14:03:14;4.72;;;1.87;;
12181;SDS011;6154;51.550;12.138;2023-03-01T14:05:56;4.10;;;1.70;;
12181;SDS011;6154;51.550;12.138;2023-03-01T14:08:40;2.17;;;1.58;;
12181;SDS011;6154;51.550;12.138;2023-03-01T14:14:30;3.05;;;1.80;;
12181;SDS011;6154;51.550;12.138;2023-03-01T14:17:14;3.58;;;1.98;;
12181;SDS011;6154;51.550;12.138;2023-03-01T14:20:00;4.45;;;1.73;;
12181;SDS011;6154;51.550;12.138;2023-03-01T14:22:35;2.97;;;1.70;;
12181;SDS011;6154;51.550;12.138;2023-03-01T14:25:05;3.58;;;1.77;;
12181;SDS011;6154;51.550;12.138;2023-03-01T14:27:44;3.78;;;1.58;;
12181;SDS011;6154;51.550;12.138;2023-03-01T14:30:19;2.50;;;1.90;;
12181;SDS011;6154;51.550;12.138;2023-03-01T14:32:54;1.92;;;1.58;;
12181;SDS011;6154;51.550;12.138;2023-03-01T14:35:25;3.62;;;1.52;;
12181;SDS011;6154;51.550;12.138;2023-03-01T14:37:54;2.42;;;1.67;;
12181;SDS011;6154;51.550;12.138;2023-03-01T14:40:24;3.33;;;1.65;;
12181;SDS011;6154;51.550;12.138;2023-03-01T14:42:55;5.35;;;2.10;;
12181;SDS011;6154;51.550;12.138;2023-03-01T14:45:26;3.45;;;1.80;;
12181;SDS011;6154;51.550;12.138;2023-03-01T14:48:00;5.28;;;1.92;;
12181;SDS011;6154;51.550;12.138;2023-03-01T14:50:30;3.00;;;1.95;;
12181;SDS011;6154;51.550;12.138;2023-03-01T14:53:00;1.98;;;1.62;;
12181;SDS011;6154;51.550;12.138;2023-03-01T14:55:31;2.80;;;1.65;;
12181;SDS011;6154;51.550;12.138;2023-03-01T14:58:03;2.03;;;1.62;;
12181;SDS011;6154;51.550;12.138;2023-03-01T15:00:33;2.42;;;1.67;;
12181;SDS011;6154;51.550;12.138;2023-03-01T15:03:06;4.37;;;2.35;;
12181;SDS011;6154;51.550;12.138;2023-03-01T15:05:40;4.20;;;2.40;;
12181;SDS011;6154;51.550;12.138;2023-03-01T15:08:13;2.97;;;2.45;;
12181;SDS011;6154;51.550;12.138;2023-03-01T15:10:55;6.22;;;2.70;;
12181;SDS011;6154;51.550;12.138;2023-03-01T15:13:26;3.42;;;2.50;;
12181;SDS011;6154;51.550;12.138;2023-03-01T15:16:01;4.65;;;2.50;;
12181;SDS011;6154;51.550;12.138;2023-03-01T15:18:35;3.10;;;2.45;;
12181;SDS011;6154;51.550;12.138;2023-03-01T15:21:06;5.78;;;3.15;;
12181;SDS011;6154;51.550;12.138;2023-03-01T15:23:37;2.62;;;2.33;;
12181;SDS011;6154;51.550;12.138;2023-03-01T15:26:16;3.92;;;2.50;;
12181;SDS011;6154;51.550;12.138;2023-03-01T15:28:51;3.92;;;2.78;;
12181;SDS011;6154;51.550;12.138;2023-03-01T15:31:25;3.90;;;2.25;;
12181;SDS011;6154;51.550;12.138;2023-03-01T15:34:09;4.20;;;1.92;;
12181;SDS011;6154;51.550;12.138;2023-03-01T15:36:49;4.43;;;2.37;;
12181;SDS011;6154;51.550;12.138;2023-03-01T15:39:34;4.10;;;2.00;;
12181;SDS011;6154;51.550;12.138;2023-03-01T15:42:10;3.58;;;2.30;;
12181;SDS011;6154;51.550;12.138;2023-03-01T15:44:40;4.53;;;2.12;;
12181;SDS011;6154;51.550;12.138;2023-03-01T15:47:22;2.80;;;1.92;;
12181;SDS011;6154;51.550;12.138;2023-03-01T15:49:54;4.57;;;2.10;;
12181;SDS011;6154;51.550;12.138;2023-03-01T15:52:23;2.33;;;1.98;;
12181;SDS011;6154;51.550;12.138;2023-03-01T15:54:56;3.17;;;1.90;;
12181;SDS011;6154;51.550;12.138;2023-03-01T15:57:26;2.40;;;1.77;;
12181;SDS011;6154;51.550;12.138;2023-03-01T15:59:55;2.47;;;1.87;;
12181;SDS011;6154;51.550;12.138;2023-03-01T16:02:23;3.30;;;1.80;;
12181;SDS011;6154;51.550;12.138;2023-03-01T16:04:52;2.40;;;1.70;;
12181;SDS011;6154;51.550;12.138;2023-03-01T16:07:24;2.62;;;1.85;;
12181;SDS011;6154;51.550;12.138;2023-03-01T16:09:54;6.57;;;2.10;;
12181;SDS011;6154;51.550;12.138;2023-03-01T16:12:23;3.47;;;1.65;;
12181;SDS011;6154;51.550;12.138;2023-03-01T16:14:51;3.40;;;2.22;;
12181;SDS011;6154;51.550;12.138;2023-03-01T16:17:20;4.68;;;2.60;;
12181;SDS011;6154;51.550;12.138;2023-03-01T16:19:48;4.18;;;2.30;;
12181;SDS011;6154;51.550;12.138;2023-03-01T16:22:16;2.83;;;1.50;;
12181;SDS011;6154;51.550;12.138;2023-03-01T16:24:49;3.22;;;1.90;;
12181;SDS011;6154;51.550;12.138;2023-03-01T16:27:17;3.33;;;1.60;;
12181;SDS011;6154;51.550;12.138;2023-03-01T16:29:47;3.17;;;2.10;;
12181;SDS011;6154;51.550;12.138;2023-03-01T16:32:15;5.20;;;2.33;;
12181;SDS011;6154;51.550;12.138;2023-03-01T16:34:43;5.47;;;2.60;;
12181;SDS011;6154;51.550;12.138;2023-03-01T16:37:14;3.47;;;2.20;;
12181;SDS011;6154;51.550;12.138;2023-03-01T16:39:43;2.97;;;2.03;;
12181;SDS011;6154;51.550;12.138;2023-03-01T16:42:12;4.45;;;2.35;;